sensor_id;sensor_type;location;lat;lon;timestamp;temperature;humidity
24860;DHT22;12936;52.006;4.350;2023-05-06T00:01:58;17.10;99.90
24860;DHT22;12936;52.006;4.350;2023-05-06T00:04:32;17.10;99.90
24860;DHT22;12936;52.006;4.350;2023-05-06T00:07:02;17.10;99.90
24860;DHT22;12936;52.006;4.350;2023-05-06T00:09:35;17.10;99.90
24860;DHT22;12936;52.006;4.350;2023-05-06T00:12:11;17.00;99.90
24860;DHT22;12936;52.006;4.350;2023-05-06T00:15:02;17.00;99.90
24860;DHT22;12936;52.006;4.350;2023-05-06T00:17:32;17.00;99.90
24860;DHT22;12936;52.006;4.350;2023-05-06T00:20:02;17.00;99.90
24860;DHT22;12936;52.006;4.350;2023-05-06T00:22:36;17.00;99.90
24860;DHT22;12936;52.006;4.350;2023-05-06T00:25:42;17.00;99.90
24860;DHT22;12936;52.006;4.350;2023-05-06T00:28:32;17.00;99.90
24860;DHT22;12936;52.006;4.350;2023-05-06T00:31:02;17.00;99.90
24860;DHT22;12936;52.006;4.350;2023-05-06T00:33:34;17.00;99.90
24860;DHT22;12936;52.006;4.350;2023-05-06T00:36:04;17.00;99.90
24860;DHT22;12936;52.006;4.350;2023-05-06T00:38:38;17.00;99.90
24860;DHT22;12936;52.006;4.350;2023-05-06T00:41:14;17.00;99.90
24860;DHT22;12936;52.006;4.350;2023-05-06T00:43:44;17.00;99.90
24860;DHT22;12936;52.006;4.350;2023-05-06T00:46:15;17.00;99.90
24860;DHT22;12936;52.006;4.350;2023-05-06T00:48:50;17.00;99.90
24860;DHT22;12936;52.006;4.350;2023-05-06T00:51:19;17.00;99.90
24860;DHT22;12936;52.006;4.350;2023-05-06T00:53:48;16.90;99.90
24860;DHT22;12936;52.006;4.350;2023-05-06T00:56:28;16.90;99.90
24860;DHT22;12936;52.006;4.350;2023-05-06T00:59:02;16.90;99.90
24860;DHT22;12936;52.006;4.350;2023-05-06T01:01:32;16.90;99.90
24860;DHT22;12936;52.006;4.350;2023-05-06T01:04:04;16.90;99.90
24860;DHT22;12936;52.006;4.350;2023-05-06T01:07:05;16.90;99.90
24860;DHT22;12936;52.006;4.350;2023-05-06T01:09:38;16.90;99.90
24860;DHT22;12936;52.006;4.350;2023-05-06T01:12:23;16.80;99.90
24860;DHT22;12936;52.006;4.350;2023-05-06T01:15:00;16.80;99.90
24860;DHT22;12936;52.006;4.350;2023-05-06T01:17:54;16.80;99.90
24860;DHT22;12936;52.006;4.350;2023-05-06T01:20:29;16.80;99.90
24860;DHT22;12936;52.006;4.350;2023-05-06T01:23:06;16.70;99.90
24860;DHT22;12936;52.006;4.350;2023-05-06T01:25:36;16.70;99.90
24860;DHT22;12936;52.006;4.350;2023-05-06T01:28:10;16.70;99.90
24860;DHT22;12936;52.006;4.350;2023-05-06T01:30:48;16.60;99.90
24860;DHT22;12936;52.006;4.350;2023-05-06T01:33:31;16.60;99.90
24860;DHT22;12936;52.006;4.350;2023-05-06T01:36:07;16.60;99.90
24860;DHT22;12936;52.006;4.350;2023-05-06T01:38:49;16.60;99.90
24860;DHT22;12936;52.006;4.350;2023-05-06T01:41:22;16.60;99.90
24860;DHT22;12936;52.006;4.350;2023-05-06T01:43:53;16.50;99.90
24860;DHT22;12936;52.006;4.350;2023-05-06T01:46:23;16.50;99.90
24860;DHT22;12936;52.006;4.350;2023-05-06T01:48:53;16.50;99.90
24860;DHT22;12936;52.006;4.350;2023-05-06T01:51:22;16.50;99.90
24860;DHT22;12936;52.006;4.350;2023-05-06T01:53:54;16.40;99.90
24860;DHT22;12936;52.006;4.350;2023-05-06T01:56:44;16.50;99.90
24860;DHT22;12936;52.006;4.350;2023-05-06T02:00:02;16.40;99.90
24860;DHT22;12936;52.006;4.350;2023-05-06T02:02:54;16.40;99.90
24860;DHT22;12936;52.006;4.350;2023-05-06T02:05:23;16.40;99.90
24860;DHT22;12936;52.006;4.350;2023-05-06T02:07:55;16.40;99.90
24860;DHT22;12936;52.006;4.350;2023-05-06T02:10:28;16.40;99.90
24860;DHT22;12936;52.006;4.350;2023-05-06T02:13:02;16.40;99.90
24860;DHT22;12936;52.006;4.350;2023-05-06T02:15:44;16.30;99.90
24860;DHT22;12936;52.006;4.350;2023-05-06T02:18:34;16.30;99.90
24860;DHT22;12936;52.006;4.350;2023-05-06T02:21:03;16.30;99.90
24860;DHT22;12936;52.006;4.350;2023-05-06T02:23:33;16.30;99.90
24860;DHT22;12936;52.006;4.350;2023-05-06T02:26:03;16.30;99.90
24860;DHT22;12936;52.006;4.350;2023-05-06T02:28:35;16.20;99.90
24860;DHT22;12936;52.006;4.350;2023-05-06T02:31:05;16.20;99.90
24860;DHT22;12936;52.006;4.350;2023-05-06T02:34:00;16.20;99.90
24860;DHT22;12936;52.006;4.350;2023-05-06T02:36:29;16.20;99.90
24860;DHT22;12936;52.006;4.350;2023-05-06T02:39:01;16.20;99.90
24860;DHT22;12936;52.006;4.350;2023-05-06T02:41:47;16.20;99.90
24860;DHT22;12936;52.006;4.350;2023-05-06T02:44:20;16.10;99.90
24860;DHT22;12936;52.006;4.350;2023-05-06T02:46:52;16.10;99.90
24860;DHT22;12936;52.006;4.350;2023-05-06T02:49:23;16.10;99.90
24860;DHT22;12936;52.006;4.350;2023-05-06T02:51:59;16.10;99.90
24860;DHT22;12936;52.006;4.350;2023-05-06T02:54:32;16.10;99.90
24860;DHT22;12936;52.006;4.350;2023-05-06T02:57:06;16.10;99.90
24860;DHT22;12936;52.006;4.350;2023-05-06T02:59:34;16.00;99.90
24860;DHT22;12936;52.006;4.350;2023-05-06T03:02:18;16.00;99.90
24860;DHT22;12936;52.006;4.350;2023-05-06T03:04:52;16.00;99.90
24860;DHT22;12936;52.006;4.350;2023-05-06T03:07:21;16.00;99.90
24860;DHT22;12936;52.006;4.350;2023-05-06T03:10:16;16.00;99.90
24860;DHT22;12936;52.006;4.350;2023-05-06T03:12:48;16.00;99.90
24860;DHT22;12936;52.006;4.350;2023-05-06T03:15:43;16.00;99.90
24860;DHT22;12936;52.006;4.350;2023-05-06T03:18:12;15.90;99.90
24860;DHT22;12936;52.006;4.350;2023-05-06T03:20:44;16.00;99.90
24860;DHT22;12936;52.006;4.350;2023-05-06T03:23:13;16.00;99.90
24860;DHT22;12936;52.006;4.350;2023-05-06T03:25:44;15.90;99.90
24860;DHT22;12936;52.006;4.350;2023-05-06T03:28:21;15.90;99.90
24860;DHT22;12936;52.006;4.350;2023-05-06T03:31:13;15.90;99.90
24860;DHT22;12936;52.006;4.350;2023-05-06T03:34:02;15.90;99.90
24860;DHT22;12936;52.006;4.350;2023-05-06T03:36:33;15.90;99.90
24860;DHT22;12936;52.006;4.350;2023-05-06T03:39:04;15.90;99.90
24860;DHT22;12936;52.006;4.350;2023-05-06T03:41:32;15.90;99.90
24860;DHT22;12936;52.006;4.350;2023-05-06T03:44:04;15.90;99.90
24860;DHT22;12936;52.006;4.350;2023-05-06T03:46:33;15.80;99.90
24860;DHT22;12936;52.006;4.350;2023-05-06T03:49:08;15.80;99.90
24860;DHT22;12936;52.006;4.350;2023-05-06T03:51:40;15.80;99.90
24860;DHT22;12936;52.006;4.350;2023-05-06T03:54:11;15.80;99.90
24860;DHT22;12936;52.006;4.350;2023-05-06T03:56:39;15.80;99.90
24860;DHT22;12936;52.006;4.350;2023-05-06T03:59:12;15.80;99.90
24860;DHT22;12936;52.006;4.350;2023-05-06T04:01:43;15.80;99.90
24860;DHT22;12936;52.006;4.350;2023-05-06T04:04:13;15.80;99.90
24860;DHT22;12936;52.006;4.350;2023-05-06T04:06:44;15.80;99.90
24860;DHT22;12936;52.006;4.350;2023-05-06T04:09:20;15.80;99.90
24860;DHT22;12936;52.006;4.350;2023-05-06T04:11:53;15.80;99.90
24860;DHT22;12936;52.006;4.350;2023-05-06T04:14:57;15.80;99.90
24860;DHT22;12936;52.006;4.350;2023-05-06T04:17:25;15.80;99.90
24860;DHT22;12936;52.006;4.350;2023-05-06T04:19:55;15.80;99.90
24860;DHT22;12936;52.006;4.350;2023-05-06T04:22:26;15.80;99.90
24860;DHT22;12936;52.006;4.350;2023-05-06T04:24:55;15.80;99.90
24860;DHT22;12936;52.006;4.350;2023-05-06T04:27:28;15.80;99.90
24860;DHT22;12936;52.006;4.350;2023-05-06T04:30:03;15.80;99.90
24860;DHT22;12936;52.006;4.350;2023-05-06T04:32:32;15.80;99.90
24860;DHT22;12936;52.006;4.350;2023-05-06T04:35:37;15.80;99.90
24860;DHT22;12936;52.006;4.350;2023-05-06T04:38:28;15.80;99.90
24860;DHT22;12936;52.006;4.350;2023-05-06T04:41:01;15.80;99.90
24860;DHT22;12936;52.006;4.350;2023-05-06T04:43:31;15.80;99.90
24860;DHT22;12936;52.006;4.350;2023-05-06T04:46:02;15.80;99.90
24860;DHT22;12936;52.006;4.350;2023-05-06T04:48:31;15.80;99.90
24860;DHT22;12936;52.006;4.350;2023-05-06T04:51:03;15.80;99.90
24860;DHT22;12936;52.006;4.350;2023-05-06T04:53:57;15.80;99.90
24860;DHT22;12936;52.006;4.350;2023-05-06T04:56:27;15.80;99.90
24860;DHT22;12936;52.006;4.350;2023-05-06T04:58:55;15.80;99.90
24860;DHT22;12936;52.006;4.350;2023-05-06T05:01:26;15.80;99.90
24860;DHT22;12936;52.006;4.350;2023-05-06T05:03:54;15.80;99.90
24860;DHT22;12936;52.006;4.350;2023-05-06T05:06:22;15.80;99.90
24860;DHT22;12936;52.006;4.350;2023-05-06T05:08:50;15.80;99.90
24860;DHT22;12936;52.006;4.350;2023-05-06T05:11:20;15.80;99.90
24860;DHT22;12936;52.006;4.350;2023-05-06T05:13:48;15.80;99.90
24860;DHT22;12936;52.006;4.350;2023-05-06T05:16:17;15.80;99.90
24860;DHT22;12936;52.006;4.350;2023-05-06T05:18:46;15.90;99.90
24860;DHT22;12936;52.006;4.350;2023-05-06T05:21:14;15.90;99.90
24860;DHT22;12936;52.006;4.350;2023-05-06T05:23:43;15.90;99.90
24860;DHT22;12936;52.006;4.350;2023-05-06T05:26:12;16.00;99.90
24860;DHT22;12936;52.006;4.350;2023-05-06T05:28:40;16.00;99.90
24860;DHT22;12936;52.006;4.350;2023-05-06T05:31:09;16.10;99.90
24860;DHT22;12936;52.006;4.350;2023-05-06T05:33:37;16.10;99.90
24860;DHT22;12936;52.006;4.350;2023-05-06T05:36:07;16.10;99.90
24860;DHT22;12936;52.006;4.350;2023-05-06T05:38:35;16.10;99.90
24860;DHT22;12936;52.006;4.350;2023-05-06T05:41:03;16.20;99.90
24860;DHT22;12936;52.006;4.350;2023-05-06T05:43:31;16.20;99.90
24860;DHT22;12936;52.006;4.350;2023-05-06T05:45:59;16.20;99.90
24860;DHT22;12936;52.006;4.350;2023-05-06T05:48:27;16.20;99.90
24860;DHT22;12936;52.006;4.350;2023-05-06T05:50:57;16.20;99.90
24860;DHT22;12936;52.006;4.350;2023-05-06T05:53:26;16.20;99.90
24860;DHT22;12936;52.006;4.350;2023-05-06T05:55:54;16.30;99.90
24860;DHT22;12936;52.006;4.350;2023-05-06T05:58:22;16.20;99.90
24860;DHT22;12936;52.006;4.350;2023-05-06T06:00:50;16.30;99.90
24860;DHT22;12936;52.006;4.350;2023-05-06T06:03:19;16.30;99.90
24860;DHT22;12936;52.006;4.350;2023-05-06T06:05:47;16.30;99.90
24860;DHT22;12936;52.006;4.350;2023-05-06T06:08:18;16.30;99.90
24860;DHT22;12936;52.006;4.350;2023-05-06T06:10:47;16.30;99.90
24860;DHT22;12936;52.006;4.350;2023-05-06T06:13:15;16.30;99.90
24860;DHT22;12936;52.006;4.350;2023-05-06T06:15:44;16.30;99.90
24860;DHT22;12936;52.006;4.350;2023-05-06T06:18:12;16.40;99.90
24860;DHT22;12936;52.006;4.350;2023-05-06T06:20:40;16.40;99.90
24860;DHT22;12936;52.006;4.350;2023-05-06T06:23:08;16.40;99.90
24860;DHT22;12936;52.006;4.350;2023-05-06T06:25:36;16.40;99.90
24860;DHT22;12936;52.006;4.350;2023-05-06T06:28:06;16.40;99.90
24860;DHT22;12936;52.006;4.350;2023-05-06T06:30:34;16.40;99.90
24860;DHT22;12936;52.006;4.350;2023-05-06T06:33:03;16.50;99.90
24860;DHT22;12936;52.006;4.350;2023-05-06T06:35:31;16.40;99.90
24860;DHT22;12936;52.006;4.350;2023-05-06T06:37:59;16.50;99.90
24860;DHT22;12936;52.006;4.350;2023-05-06T06:40:27;16.50;99.90
24860;DHT22;12936;52.006;4.350;2023-05-06T06:42:56;16.60;99.90
24860;DHT22;12936;52.006;4.350;2023-05-06T06:45:25;16.60;99.90
24860;DHT22;12936;52.006;4.350;2023-05-06T06:47:53;16.70;99.90
24860;DHT22;12936;52.006;4.350;2023-05-06T06:50:21;16.70;99.90
24860;DHT22;12936;52.006;4.350;2023-05-06T06:52:49;16.80;99.90
24860;DHT22;12936;52.006;4.350;2023-05-06T06:55:17;16.70;99.90
24860;DHT22;12936;52.006;4.350;2023-05-06T06:57:46;16.80;99.90
24860;DHT22;12936;52.006;4.350;2023-05-06T07:00:15;16.80;99.90
24860;DHT22;12936;52.006;4.350;2023-05-06T07:02:44;16.80;99.90
24860;DHT22;12936;52.006;4.350;2023-05-06T07:05:14;16.90;99.90
24860;DHT22;12936;52.006;4.350;2023-05-06T07:07:42;16.90;99.90
24860;DHT22;12936;52.006;4.350;2023-05-06T07:10:10;17.00;99.90
24860;DHT22;12936;52.006;4.350;2023-05-06T07:12:39;17.00;99.90
24860;DHT22;12936;52.006;4.350;2023-05-06T07:15:07;17.00;99.90
24860;DHT22;12936;52.006;4.350;2023-05-06T07:17:35;17.10;99.90
24860;DHT22;12936;52.006;4.350;2023-05-06T07:20:06;17.10;99.90
24860;DHT22;12936;52.006;4.350;2023-05-06T07:22:34;17.20;99.90
24860;DHT22;12936;52.006;4.350;2023-05-06T07:25:03;17.20;99.90
24860;DHT22;12936;52.006;4.350;2023-05-06T07:27:32;17.30;99.90
24860;DHT22;12936;52.006;4.350;2023-05-06T07:30:00;17.30;99.90
24860;DHT22;12936;52.006;4.350;2023-05-06T07:32:28;17.40;99.90
24860;DHT22;12936;52.006;4.350;2023-05-06T07:34:57;17.40;99.90
24860;DHT22;12936;52.006;4.350;2023-05-06T07:37:26;17.40;99.90
24860;DHT22;12936;52.006;4.350;2023-05-06T07:39:55;17.40;99.90
24860;DHT22;12936;52.006;4.350;2023-05-06T07:42:24;17.50;99.90
24860;DHT22;12936;52.006;4.350;2023-05-06T07:44:52;17.60;99.90
24860;DHT22;12936;52.006;4.350;2023-05-06T07:47:26;17.60;99.90
24860;DHT22;12936;52.006;4.350;2023-05-06T07:49:57;17.60;99.90
24860;DHT22;12936;52.006;4.350;2023-05-06T07:52:27;17.60;99.90
24860;DHT22;12936;52.006;4.350;2023-05-06T07:54:55;17.60;99.90
24860;DHT22;12936;52.006;4.350;2023-05-06T07:57:23;17.70;99.90
24860;DHT22;12936;52.006;4.350;2023-05-06T07:59:51;17.70;99.90
24860;DHT22;12936;52.006;4.350;2023-05-06T08:02:19;17.80;99.90
24860;DHT22;12936;52.006;4.350;2023-05-06T08:04:48;17.80;99.90
24860;DHT22;12936;52.006;4.350;2023-05-06T08:07:17;17.80;99.90
24860;DHT22;12936;52.006;4.350;2023-05-06T08:09:47;17.90;99.90
24860;DHT22;12936;52.006;4.350;2023-05-06T08:12:15;17.90;99.90
24860;DHT22;12936;52.006;4.350;2023-05-06T08:14:43;17.90;99.90
24860;DHT22;12936;52.006;4.350;2023-05-06T08:17:12;18.00;99.90
24860;DHT22;12936;52.006;4.350;2023-05-06T08:19:40;18.00;99.90
24860;DHT22;12936;52.006;4.350;2023-05-06T08:22:08;18.10;99.90
24860;DHT22;12936;52.006;4.350;2023-05-06T08:24:36;18.10;99.90
24860;DHT22;12936;52.006;4.350;2023-05-06T08:27:06;18.10;99.90
24860;DHT22;12936;52.006;4.350;2023-05-06T08:29:34;18.20;99.90
24860;DHT22;12936;52.006;4.350;2023-05-06T08:32:02;18.30;99.90
24860;DHT22;12936;52.006;4.350;2023-05-06T08:34:30;18.30;99.90
24860;DHT22;12936;52.006;4.350;2023-05-06T08:36:58;18.30;99.90
24860;DHT22;12936;52.006;4.350;2023-05-06T08:39:26;18.30;99.90
24860;DHT22;12936;52.006;4.350;2023-05-06T08:41:55;18.40;99.90
24860;DHT22;12936;52.006;4.350;2023-05-06T08:44:26;18.50;99.90
24860;DHT22;12936;52.006;4.350;2023-05-06T08:46:54;18.50;99.90
24860;DHT22;12936;52.006;4.350;2023-05-06T08:49:22;18.50;99.90
24860;DHT22;12936;52.006;4.350;2023-05-06T08:51:51;18.50;99.90
24860;DHT22;12936;52.006;4.350;2023-05-06T08:54:20;18.50;99.90
24860;DHT22;12936;52.006;4.350;2023-05-06T08:56:52;18.60;99.90
24860;DHT22;12936;52.006;4.350;2023-05-06T08:59:25;18.60;99.90
24860;DHT22;12936;52.006;4.350;2023-05-06T09:01:56;18.70;99.90
24860;DHT22;12936;52.006;4.350;2023-05-06T09:04:24;18.70;99.90
24860;DHT22;12936;52.006;4.350;2023-05-06T09:06:53;18.70;99.90
24860;DHT22;12936;52.006;4.350;2023-05-06T09:09:21;18.70;99.90
24860;DHT22;12936;52.006;4.350;2023-05-06T09:11:49;18.70;99.90
24860;DHT22;12936;52.006;4.350;2023-05-06T09:14:20;18.70;99.90
24860;DHT22;12936;52.006;4.350;2023-05-06T09:16:50;18.70;99.90
24860;DHT22;12936;52.006;4.350;2023-05-06T09:19:20;18.80;99.90
24860;DHT22;12936;52.006;4.350;2023-05-06T09:21:50;18.80;99.90
24860;DHT22;12936;52.006;4.350;2023-05-06T09:24:22;18.80;99.90
24860;DHT22;12936;52.006;4.350;2023-05-06T09:26:51;18.80;99.90
24860;DHT22;12936;52.006;4.350;2023-05-06T09:29:20;18.90;99.90
24860;DHT22;12936;52.006;4.350;2023-05-06T09:31:53;18.90;99.90
24860;DHT22;12936;52.006;4.350;2023-05-06T09:34:22;18.90;99.90
24860;DHT22;12936;52.006;4.350;2023-05-06T09:36:51;19.00;99.90
24860;DHT22;12936;52.006;4.350;2023-05-06T09:39:24;19.00;99.90
24860;DHT22;12936;52.006;4.350;2023-05-06T09:41:52;19.00;99.90
24860;DHT22;12936;52.006;4.350;2023-05-06T09:44:21;19.00;99.90
24860;DHT22;12936;52.006;4.350;2023-05-06T09:46:51;19.00;99.90
24860;DHT22;12936;52.006;4.350;2023-05-06T09:49:19;19.10;99.90
24860;DHT22;12936;52.006;4.350;2023-05-06T09:51:48;19.10;99.90
24860;DHT22;12936;52.006;4.350;2023-05-06T09:54:18;19.10;99.90
24860;DHT22;12936;52.006;4.350;2023-05-06T09:56:47;19.20;99.90
24860;DHT22;12936;52.006;4.350;2023-05-06T09:59:16;19.20;99.90
24860;DHT22;12936;52.006;4.350;2023-05-06T10:01:45;19.20;99.90
24860;DHT22;12936;52.006;4.350;2023-05-06T10:04:16;19.20;99.90
24860;DHT22;12936;52.006;4.350;2023-05-06T10:06:47;19.30;99.90
24860;DHT22;12936;52.006;4.350;2023-05-06T10:09:16;19.30;99.90
24860;DHT22;12936;52.006;4.350;2023-05-06T10:11:46;19.40;99.90
24860;DHT22;12936;52.006;4.350;2023-05-06T10:14:15;19.40;99.90
24860;DHT22;12936;52.006;4.350;2023-05-06T10:16:43;19.50;99.90
24860;DHT22;12936;52.006;4.350;2023-05-06T10:19:15;19.50;99.90
24860;DHT22;12936;52.006;4.350;2023-05-06T10:21:50;19.50;99.90
24860;DHT22;12936;52.006;4.350;2023-05-06T10:24:24;19.60;99.90
24860;DHT22;12936;52.006;4.350;2023-05-06T10:26:55;19.60;99.90
24860;DHT22;12936;52.006;4.350;2023-05-06T10:29:24;19.70;99.90
24860;DHT22;12936;52.006;4.350;2023-05-06T10:31:55;19.70;99.90
24860;DHT22;12936;52.006;4.350;2023-05-06T10:34:26;19.80;99.90
24860;DHT22;12936;52.006;4.350;2023-05-06T10:36:57;19.80;99.90
24860;DHT22;12936;52.006;4.350;2023-05-06T10:39:26;19.90;99.90
24860;DHT22;12936;52.006;4.350;2023-05-06T10:41:55;20.00;99.90
24860;DHT22;12936;52.006;4.350;2023-05-06T10:44:57;20.00;99.90
24860;DHT22;12936;52.006;4.350;2023-05-06T10:47:26;20.00;99.90
24860;DHT22;12936;52.006;4.350;2023-05-06T10:50:21;20.10;99.90
24860;DHT22;12936;52.006;4.350;2023-05-06T10:52:50;20.10;99.90
24860;DHT22;12936;52.006;4.350;2023-05-06T10:55:27;20.10;99.90
24860;DHT22;12936;52.006;4.350;2023-05-06T10:57:56;20.10;99.90
24860;DHT22;12936;52.006;4.350;2023-05-06T11:00:30;20.20;99.90
24860;DHT22;12936;52.006;4.350;2023-05-06T11:03:01;20.20;99.90
24860;DHT22;12936;52.006;4.350;2023-05-06T11:05:30;20.20;99.90
24860;DHT22;12936;52.006;4.350;2023-05-06T11:08:08;20.20;99.90
24860;DHT22;12936;52.006;4.350;2023-05-06T11:10:37;20.20;99.90
24860;DHT22;12936;52.006;4.350;2023-05-06T11:13:21;20.30;99.90
24860;DHT22;12936;52.006;4.350;2023-05-06T11:15:50;20.30;99.90
24860;DHT22;12936;52.006;4.350;2023-05-06T11:18:40;20.40;99.90
24860;DHT22;12936;52.006;4.350;2023-05-06T11:21:38;20.40;99.90
24860;DHT22;12936;52.006;4.350;2023-05-06T11:24:10;20.40;99.90
24860;DHT22;12936;52.006;4.350;2023-05-06T11:26:40;20.40;99.90
24860;DHT22;12936;52.006;4.350;2023-05-06T11:29:08;20.50;99.90
24860;DHT22;12936;52.006;4.350;2023-05-06T11:31:41;20.50;99.90
24860;DHT22;12936;52.006;4.350;2023-05-06T11:34:11;20.50;99.90
24860;DHT22;12936;52.006;4.350;2023-05-06T11:36:52;20.60;99.90
24860;DHT22;12936;52.006;4.350;2023-05-06T11:39:20;20.60;99.90
24860;DHT22;12936;52.006;4.350;2023-05-06T11:41:49;20.70;99.90
24860;DHT22;12936;52.006;4.350;2023-05-06T11:44:26;20.70;99.90
24860;DHT22;12936;52.006;4.350;2023-05-06T11:46:56;20.70;99.90
24860;DHT22;12936;52.006;4.350;2023-05-06T11:49:24;20.70;99.90
24860;DHT22;12936;52.006;4.350;2023-05-06T11:51:54;20.80;99.90
24860;DHT22;12936;52.006;4.350;2023-05-06T11:54:25;20.80;99.90
24860;DHT22;12936;52.006;4.350;2023-05-06T11:56:54;20.80;99.90
24860;DHT22;12936;52.006;4.350;2023-05-06T11:59:28;20.80;99.90
24860;DHT22;12936;52.006;4.350;2023-05-06T12:01:58;20.90;99.90
24860;DHT22;12936;52.006;4.350;2023-05-06T12:04:26;20.80;99.90
24860;DHT22;12936;52.006;4.350;2023-05-06T12:06:56;20.90;99.90
24860;DHT22;12936;52.006;4.350;2023-05-06T12:09:24;20.90;99.90
24860;DHT22;12936;52.006;4.350;2023-05-06T12:11:52;20.90;99.90
24860;DHT22;12936;52.006;4.350;2023-05-06T12:14:21;20.90;99.90
24860;DHT22;12936;52.006;4.350;2023-05-06T12:16:49;20.90;99.90
24860;DHT22;12936;52.006;4.350;2023-05-06T12:19:20;20.90;99.90
24860;DHT22;12936;52.006;4.350;2023-05-06T12:21:48;20.90;99.90
24860;DHT22;12936;52.006;4.350;2023-05-06T12:24:27;20.90;99.90
24860;DHT22;12936;52.006;4.350;2023-05-06T12:26:55;21.00;99.90
24860;DHT22;12936;52.006;4.350;2023-05-06T12:29:23;21.00;99.90
24860;DHT22;12936;52.006;4.350;2023-05-06T12:32:06;21.00;99.90
24860;DHT22;12936;52.006;4.350;2023-05-06T12:34:54;21.10;99.90
24860;DHT22;12936;52.006;4.350;2023-05-06T12:37:25;21.10;99.90
24860;DHT22;12936;52.006;4.350;2023-05-06T12:39:55;21.10;99.90
24860;DHT22;12936;52.006;4.350;2023-05-06T12:42:25;21.10;99.90
24860;DHT22;12936;52.006;4.350;2023-05-06T12:44:56;21.10;99.90
24860;DHT22;12936;52.006;4.350;2023-05-06T12:47:25;21.20;99.90
24860;DHT22;12936;52.006;4.350;2023-05-06T12:49:54;21.20;99.90
24860;DHT22;12936;52.006;4.350;2023-05-06T12:52:25;21.20;99.90
24860;DHT22;12936;52.006;4.350;2023-05-06T12:54:56;21.20;99.90
24860;DHT22;12936;52.006;4.350;2023-05-06T12:57:24;21.20;99.90
24860;DHT22;12936;52.006;4.350;2023-05-06T12:59:52;21.30;99.90
24860;DHT22;12936;52.006;4.350;2023-05-06T13:02:22;21.30;99.90
24860;DHT22;12936;52.006;4.350;2023-05-06T13:04:50;21.40;99.90
24860;DHT22;12936;52.006;4.350;2023-05-06T13:07:18;21.40;99.90
24860;DHT22;12936;52.006;4.350;2023-05-06T13:09:46;21.40;99.90
24860;DHT22;12936;52.006;4.350;2023-05-06T13:12:15;21.40;99.90
24860;DHT22;12936;52.006;4.350;2023-05-06T13:14:43;21.40;99.90
24860;DHT22;12936;52.006;4.350;2023-05-06T13:17:11;21.40;99.90
24860;DHT22;12936;52.006;4.350;2023-05-06T13:19:40;21.40;99.90
24860;DHT22;12936;52.006;4.350;2023-05-06T13:22:09;21.40;99.90
24860;DHT22;12936;52.006;4.350;2023-05-06T13:24:38;21.40;99.90
24860;DHT22;12936;52.006;4.350;2023-05-06T13:27:06;21.40;99.90
24860;DHT22;12936;52.006;4.350;2023-05-06T13:29:35;21.40;99.90
24860;DHT22;12936;52.006;4.350;2023-05-06T13:32:04;21.40;99.90
24860;DHT22;12936;52.006;4.350;2023-05-06T13:34:34;21.40;99.90
24860;DHT22;12936;52.006;4.350;2023-05-06T13:37:02;21.40;99.90
24860;DHT22;12936;52.006;4.350;2023-05-06T13:39:31;21.40;99.90
24860;DHT22;12936;52.006;4.350;2023-05-06T13:41:59;21.40;99.90
24860;DHT22;12936;52.006;4.350;2023-05-06T13:44:29;21.50;99.90
24860;DHT22;12936;52.006;4.350;2023-05-06T13:46:58;21.50;99.90
24860;DHT22;12936;52.006;4.350;2023-05-06T13:49:26;21.50;99.90
24860;DHT22;12936;52.006;4.350;2023-05-06T13:51:54;21.60;99.90
24860;DHT22;12936;52.006;4.350;2023-05-06T13:54:23;21.60;99.90
24860;DHT22;12936;52.006;4.350;2023-05-06T13:56:51;21.70;99.90
24860;DHT22;12936;52.006;4.350;2023-05-06T13:59:19;21.70;99.90
24860;DHT22;12936;52.006;4.350;2023-05-06T14:01:47;21.70;99.90
24860;DHT22;12936;52.006;4.350;2023-05-06T14:04:20;21.70;99.90
24860;DHT22;12936;52.006;4.350;2023-05-06T14:06:48;21.70;99.90
24860;DHT22;12936;52.006;4.350;2023-05-06T14:09:17;21.60;99.90
24860;DHT22;12936;52.006;4.350;2023-05-06T14:11:45;21.70;99.90
24860;DHT22;12936;52.006;4.350;2023-05-06T14:14:16;21.60;99.90
24860;DHT22;12936;52.006;4.350;2023-05-06T14:16:44;21.70;99.90
24860;DHT22;12936;52.006;4.350;2023-05-06T14:19:12;21.70;99.90
24860;DHT22;12936;52.006;4.350;2023-05-06T14:21:42;21.70;99.90
24860;DHT22;12936;52.006;4.350;2023-05-06T14:24:10;21.70;99.90
24860;DHT22;12936;52.006;4.350;2023-05-06T14:26:45;21.70;99.90
24860;DHT22;12936;52.006;4.350;2023-05-06T14:29:13;21.70;99.90
24860;DHT22;12936;52.006;4.350;2023-05-06T14:31:44;21.60;99.90
24860;DHT22;12936;52.006;4.350;2023-05-06T14:34:12;21.60;99.90
24860;DHT22;12936;52.006;4.350;2023-05-06T14:36:41;21.60;99.90
24860;DHT22;12936;52.006;4.350;2023-05-06T14:39:09;21.70;99.90
24860;DHT22;12936;52.006;4.350;2023-05-06T14:41:37;21.70;99.90
24860;DHT22;12936;52.006;4.350;2023-05-06T14:44:05;21.70;99.90
24860;DHT22;12936;52.006;4.350;2023-05-06T14:46:33;21.70;99.90
24860;DHT22;12936;52.006;4.350;2023-05-06T14:49:01;21.70;99.90
24860;DHT22;12936;52.006;4.350;2023-05-06T14:51:29;21.70;99.90
24860;DHT22;12936;52.006;4.350;2023-05-06T14:53:59;21.70;99.90
24860;DHT22;12936;52.006;4.350;2023-05-06T14:56:27;21.80;99.90
24860;DHT22;12936;52.006;4.350;2023-05-06T14:58:55;21.80;99.90
24860;DHT22;12936;52.006;4.350;2023-05-06T15:01:23;21.80;99.90
24860;DHT22;12936;52.006;4.350;2023-05-06T15:03:51;21.80;99.90
24860;DHT22;12936;52.006;4.350;2023-05-06T15:06:19;21.80;99.90
24860;DHT22;12936;52.006;4.350;2023-05-06T15:08:48;21.80;99.90
24860;DHT22;12936;52.006;4.350;2023-05-06T15:11:18;21.70;99.90
24860;DHT22;12936;52.006;4.350;2023-05-06T15:13:46;21.70;99.90
24860;DHT22;12936;52.006;4.350;2023-05-06T15:16:14;21.60;99.90
24860;DHT22;12936;52.006;4.350;2023-05-06T15:18:42;21.60;99.90
24860;DHT22;12936;52.006;4.350;2023-05-06T15:21:11;21.60;99.90
24860;DHT22;12936;52.006;4.350;2023-05-06T15:23:39;21.60;99.90
24860;DHT22;12936;52.006;4.350;2023-05-06T15:26:07;21.50;99.90
24860;DHT22;12936;52.006;4.350;2023-05-06T15:28:37;21.50;99.90
24860;DHT22;12936;52.006;4.350;2023-05-06T15:31:05;21.50;99.90
24860;DHT22;12936;52.006;4.350;2023-05-06T15:33:34;21.50;99.90
24860;DHT22;12936;52.006;4.350;2023-05-06T15:36:02;21.40;99.90
24860;DHT22;12936;52.006;4.350;2023-05-06T15:38:57;21.40;99.90
24860;DHT22;12936;52.006;4.350;2023-05-06T15:41:28;21.40;99.90
24860;DHT22;12936;52.006;4.350;2023-05-06T15:43:58;21.40;99.90
24860;DHT22;12936;52.006;4.350;2023-05-06T15:46:27;21.30;99.90
24860;DHT22;12936;52.006;4.350;2023-05-06T15:48:57;21.30;99.90
24860;DHT22;12936;52.006;4.350;2023-05-06T15:51:45;21.30;99.90
24860;DHT22;12936;52.006;4.350;2023-05-06T15:54:14;21.20;99.90
24860;DHT22;12936;52.006;4.350;2023-05-06T15:56:44;21.20;99.90
24860;DHT22;12936;52.006;4.350;2023-05-06T15:59:13;21.20;99.90